Time;durP1;ratioP1;P1;durP2;ratioP2;P2;SDS_P1;SDS_P2;PMS_P1;PMS_P2;Temp;Humidity;BMP_temperature;BMP_pressure;BME280_temperature;BME280_humidity;BME280_pressure;Samples;Min_cycle;Max_cycle;Signal;HPM_P1;HPM_P2
2022/04/06 16:18:58;;;;;;;1.90;0.73;;;;;;;0.75;66.88;97949.44;6273230;22;1876870;-59
2022/04/06 16:21:25;;;;;;;1.63;0.85;;;;;;;0.46;67.64;97940.78;6303171;22;20019;-60
2022/04/06 16:24:27;;;;;;;1.23;0.70;;;;;;;0.28;68.32;97942.53;5065115;28;20418;-58
2022/04/06 16:26:55;;;;;;;6.47;0.93;;;;;;;0.25;67.78;97943.16;5034052;28;20052;-59
2022/04/06 16:29:24;;;;;;;6.13;1.13;;;;;;;0.26;67.77;97947.50;5030396;28;20057;-57
2022/04/06 16:31:51;;;;;;;3.77;1.17;;;;;;;0.24;68.22;97968.88;5031053;28;20523;-58
2022/04/06 16:34:19;;;;;;;1.33;0.85;;;;;;;0.25;68.68;97964.19;5030790;28;20144;-59
2022/04/06 16:36:46;;;;;;;1.80;1.00;;;;;;;0.22;68.37;97968.38;5025386;28;59584;-59
2022/04/06 16:39:13;;;;;;;2.08;1.20;;;;;;;0.24;68.38;97982.56;5018902;28;20049;-59
2022/04/06 16:41:40;;;;;;;8.85;1.70;;;;;;;0.27;68.99;97984.69;5023363;28;20061;-58
2022/04/06 16:44:09;;;;;;;1.30;0.93;;;;;;;0.32;69.06;97992.75;5011494;28;20046;-58
2022/04/06 16:46:36;;;;;;;1.65;0.90;;;;;;;0.33;69.18;98001.78;5015243;28;20061;-59
2022/04/06 16:49:07;;;;;;;2.95;1.10;;;;;;;0.37;69.41;98011.81;5018825;28;20061;-60
2022/04/06 16:54:24;;;;;;;3.00;1.10;;;;;;;0.41;69.89;97999.13;5018050;28;20053;-59
2022/04/06 16:56:52;;;;;;;2.88;1.05;;;;;;;0.39;70.44;97998.66;5024646;28;20116;-59
2022/04/06 16:59:20;;;;;;;2.25;1.42;;;;;;;0.38;70.31;97994.28;5024279;28;20061;-59
2022/04/06 17:01:47;;;;;;;1.85;1.02;;;;;;;0.31;70.31;98002.09;5026374;28;20052;-59
2022/04/06 17:04:15;;;;;;;1.95;0.98;;;;;;;0.32;70.27;98009.16;5017500;28;20050;-61
2022/04/06 17:06:45;;;;;;;1.15;0.80;;;;;;;0.32;69.85;98003.69;5019071;28;20069;-60
2022/04/06 17:09:12;;;;;;;2.30;1.13;;;;;;;0.28;70.21;98013.63;5018279;28;20050;-62
2022/04/06 17:11:40;;;;;;;2.78;1.20;;;;;;;0.19;70.39;98012.72;5022055;28;20046;-60
2022/04/06 17:14:08;;;;;;;2.33;1.40;;;;;;;0.16;70.23;98028.91;5021017;28;20464;-60
2022/04/06 17:16:36;;;;;;;1.95;1.20;;;;;;;0.15;69.61;98027.28;5024568;28;20456;-62
2022/04/06 17:19:03;;;;;;;2.90;1.45;;;;;;;0.13;70.47;98038.53;5025094;28;20045;-61
2022/04/06 17:21:31;;;;;;;2.35;1.17;;;;;;;0.07;70.31;98028.81;5013887;28;20406;-61
2022/04/06 17:23:58;;;;;;;3.65;1.08;;;;;;;0.10;70.26;98039.13;5017325;28;20065;-58
2022/04/06 17:26:27;;;;;;;3.78;1.30;;;;;;;0.12;69.88;98039.66;5022270;28;20061;-58
2022/04/06 17:28:54;;;;;;;2.63;0.98;;;;;;;0.16;69.69;98046.13;5016936;28;20057;-65
2022/04/06 17:31:21;;;;;;;2.90;1.20;;;;;;;0.18;69.84;98048.56;5022927;28;20053;-65
2022/04/06 17:34:08;;;;;;;2.17;0.95;;;;;;;0.09;69.55;98050.38;5013680;28;20038;-62
2022/04/06 17:36:35;;;;;;;5.07;1.50;;;;;;;0.16;69.45;98075.38;5014943;28;20065;-64
2022/04/06 17:39:02;;;;;;;0.98;0.85;;;;;;;0.14;69.04;98089.34;5011227;28;20050;-66
2022/04/06 17:41:29;;;;;;;5.43;1.23;;;;;;;0.11;68.79;98083.69;5008307;28;20050;-62
2022/04/06 17:43:56;;;;;;;5.82;1.00;;;;;;;0.10;68.52;98091.06;5014379;28;20053;-62
2022/04/06 17:46:23;;;;;;;4.07;1.25;;;;;;;0.09;68.20;98094.13;5000344;28;20053;-61
2022/04/06 17:48:50;;;;;;;6.60;1.42;;;;;;;0.13;68.27;98103.31;5010966;28;20061;-58
2022/04/06 17:51:17;;;;;;;2.22;1.13;;;;;;;0.11;67.72;98097.38;5005282;28;20049;-59
2022/04/06 17:53:44;;;;;;;1.48;1.10;;;;;;;0.11;67.34;98108.31;5009479;28;20046;-61
2022/04/06 17:56:11;;;;;;;1.85;1.08;;;;;;;0.10;67.29;98121.16;5006760;28;20050;-59
2022/04/06 17:58:38;;;;;;;4.70;1.38;;;;;;;0.09;67.22;98125.00;5008711;28;20053;-63
2022/04/06 18:01:05;;;;;;;2.17;1.20;;;;;;;0.08;67.13;98123.34;5008670;28;20538;-61
2022/04/06 18:03:32;;;;;;;4.95;2.60;;;;;;;0.07;67.30;98131.84;5005876;28;20038;-62
2022/04/06 18:05:59;;;;;;;3.08;1.48;;;;;;;0.05;67.04;98148.56;5004492;28;20060;-62
2022/04/06 18:08:26;;;;;;;2.08;1.08;;;;;;;-0.07;66.49;98142.75;5011345;28;20156;-62
2022/04/06 18:13:44;;;;;;;;;;;;;;;-0.12;66.23;98151.84;5007078;28;20049;-65
2022/04/06 18:16:14;;;;;;;3.47;1.10;;;;;;;-0.09;66.26;98158.63;5014282;28;19928;-60
2022/04/06 18:18:46;;;;;;;;;;;;;;;-0.16;66.38;98164.47;5011417;28;20061;-62
2022/04/06 18:21:16;;;;;;;2.65;1.30;;;;;;;-0.13;66.25;98176.72;5013227;28;20784;-62
2022/04/06 18:23:43;;;;;;;4.93;1.73;;;;;;;-0.13;66.25;98172.09;5009269;28;20061;-62
2022/04/06 18:26:11;;;;;;;4.32;1.65;;;;;;;-0.11;66.09;98188.97;5010460;28;20132;-58
2022/04/06 18:28:40;;;;;;;1.88;1.15;;;;;;;-0.10;65.87;98182.44;5003982;28;20042;-58
2022/04/06 18:31:08;;;;;;;6.22;1.40;;;;;;;-0.04;66.14;98185.88;5011496;28;20046;-64
2022/04/06 18:33:40;;;;;;;6.50;1.70;;;;;;;-0.03;65.99;98184.75;5006313;28;20045;-61
2022/04/06 18:36:08;;;;;;;1.98;1.10;;;;;;;-0.06;65.86;98188.09;5007703;28;20145;-62
2022/04/06 18:38:38;;;;;;;2.67;1.42;;;;;;;-0.07;65.67;98184.56;5011242;28;20071;-63
2022/04/06 18:41:12;;;;;;;1.52;1.02;;;;;;;-0.08;65.73;98193.06;5009727;28;20045;-65
2022/04/06 18:43:40;;;;;;;2.95;1.38;;;;;;;-0.03;65.57;98187.50;5010308;28;20144;-65
2022/04/06 18:46:09;;;;;;;2.58;1.40;;;;;;;-0.02;65.15;98189.94;5010907;28;20523;-60
2022/04/06 18:48:49;;;;;;;4.82;1.33;;;;;;;0.00;65.12;98197.88;5010499;28;20056;-61
2022/04/06 18:51:16;;;;;;;;;;;;;;;-0.04;64.91;98210.47;5003071;28;20480;-58
2022/04/06 18:53:46;;;;;;;2.83;1.20;;;;;;;-0.06;64.75;98209.94;5008267;28;19929;-59
2022/04/06 18:56:16;;;;;;;4.47;1.43;;;;;;;-0.04;64.41;98213.22;5012965;28;20136;-62
2022/04/06 18:58:43;;;;;;;6.07;1.65;;;;;;;0.01;64.20;98210.41;5011361;28;20439;-63
2022/04/06 19:01:10;;;;;;;5.68;1.58;;;;;;;0.04;63.92;98223.47;5002815;28;20050;-63
2022/04/06 19:03:37;;;;;;;2.80;1.40;;;;;;;0.02;63.67;98222.97;4998880;28;20141;-63
2022/04/06 19:06:04;;;;;;;3.83;1.80;;;;;;;0.00;63.74;98233.41;5012669;28;20054;-66
2022/04/06 19:08:31;;;;;;;3.03;1.17;;;;;;;-0.06;63.44;98237.28;5012380;28;20046;-63
2022/04/06 19:10:59;;;;;;;8.00;1.45;;;;;;;-0.02;63.43;98243.81;5005658;28;20176;-68
2022/04/06 19:13:33;;;;;;;3.28;1.70;;;;;;;-0.01;63.31;98245.41;5013221;28;20046;-65
2022/04/06 19:15:59;;;;;;;4.45;1.90;;;;;;;0.01;63.37;98248.69;5003702;28;20062;-66
2022/04/06 19:18:26;;;;;;;4.45;1.73;;;;;;;0.02;63.16;98258.50;5001883;28;20132;-65
2022/04/06 19:20:54;;;;;;;3.88;1.83;;;;;;;-0.01;63.02;98259.09;5006587;28;21461;-65
2022/04/06 19:23:21;;;;;;;6.22;2.13;;;;;;;-0.01;63.21;98259.91;5005649;28;20072;-64
2022/04/06 19:25:48;;;;;;;2.60;1.55;;;;;;;-0.01;63.19;98261.81;5000176;28;20054;-61
2022/04/06 19:28:15;;;;;;;2.58;1.13;;;;;;;-0.01;63.16;98261.81;5007093;28;20511;-65
2022/04/06 19:30:42;;;;;;;3.22;1.60;;;;;;;0.02;63.05;98272.16;5005608;28;20077;-64
2022/04/06 19:33:09;;;;;;;3.38;1.50;;;;;;;0.01;63.27;98276.00;5009929;28;20505;-64
2022/04/06 19:35:36;;;;;;;3.00;1.77;;;;;;;0.02;63.23;98277.63;5006357;28;20508;-64
2022/04/06 19:38:03;;;;;;;3.40;1.38;;;;;;;-0.04;63.46;98278.81;5005824;28;20058;-62
2022/04/06 19:40:30;;;;;;;3.83;1.65;;;;;;;-0.08;63.60;98275.84;5009480;28;20046;-62
2022/04/06 19:42:57;;;;;;;2.95;1.85;;;;;;;-0.06;63.72;98278.28;5010635;28;20492;-62
2022/04/06 19:45:24;;;;;;;6.30;1.80;;;;;;;-0.05;63.56;98282.66;5010528;28;20056;-62
2022/04/06 19:48:00;;;;;;;2.85;1.38;;;;;;;-0.06;63.42;98276.38;5006594;28;20061;-61
2022/04/06 19:50:27;;;;;;;3.38;1.65;;;;;;;-0.05;63.45;98274.47;4999515;28;20138;-61
2022/04/06 19:52:55;;;;;;;3.83;1.50;;;;;;;-0.03;63.48;98285.88;5003232;28;20057;-61
2022/04/06 19:55:22;;;;;;;2.35;1.55;;;;;;;-0.05;63.58;98286.19;5011123;28;20052;-63
2022/04/06 19:57:49;;;;;;;7.47;1.95;;;;;;;-0.03;63.44;98289.44;5011827;28;20068;-65
2022/04/06 20:00:16;;;;;;;2.95;1.60;;;;;;;-0.05;63.53;98299.06;5026065;28;20054;-65
2022/04/06 20:02:43;;;;;;;3.65;1.60;;;;;;;-0.04;63.25;98289.75;5005343;28;20054;-64
2022/04/06 20:05:10;;;;;;;2.17;1.38;;;;;;;-0.07;63.58;98290.31;5009463;28;20046;-66
2022/04/06 20:07:38;;;;;;;4.50;1.80;;;;;;;-0.10;63.21;98294.47;5008897;28;20045;-67
2022/04/06 20:10:05;;;;;;;3.00;1.45;;;;;;;-0.08;63.52;98297.69;5006799;28;20054;-68
2022/04/06 20:12:32;;;;;;;2.95;1.40;;;;;;;-0.05;63.43;98288.91;4999036;28;20520;-71
2022/04/06 20:15:00;;;;;;;4.53;1.90;;;;;;;-0.04;63.35;98289.75;4982928;28;20069;-68
2022/04/06 20:17:28;;;;;;;2.20;1.27;;;;;;;-0.03;63.20;98297.66;5010793;28;20132;-69
2022/04/06 20:19:56;;;;;;;3.88;1.48;;;;;;;0.01;63.12;98292.41;5013324;28;20046;-62
2022/04/06 20:22:23;;;;;;;8.73;2.70;;;;;;;0.03;63.02;98281.19;5016014;28;20065;-61
2022/04/06 20:24:50;;;;;;;3.90;1.55;;;;;;;0.03;62.97;98290.22;4998842;28;20054;-61
2022/04/06 20:27:17;;;;;;;2.38;1.33;;;;;;;0.05;62.89;98287.97;4998022;28;20456;-63
2022/04/06 20:29:44;;;;;;;6.80;1.70;;;;;;;0.03;63.37;98292.94;4999941;28;20077;-63
2022/04/06 20:32:12;;;;;;;2.65;1.52;;;;;;;0.05;63.10;98289.91;5003077;28;20054;-63
2022/04/06 20:34:39;;;;;;;2.67;1.63;;;;;;;0.04;62.75;98291.81;5003729;28;20070;-62
2022/04/06 20:37:06;;;;;;;4.10;1.80;;;;;;;0.07;62.91;98296.69;5013792;28;20400;-65
2022/04/06 20:39:34;;;;;;;2.95;1.55;;;;;;;0.10;62.77;98296.09;5005797;23;20066;-63
2022/04/06 20:42:13;;;;;;;4.57;1.65;;;;;;;0.12;62.52;98296.63;4973753;28;20047;-67
2022/04/06 20:44:45;;;;;;;1.80;1.30;;;;;;;0.13;62.75;98300.97;4963266;28;20047;-67
2022/04/06 20:47:14;;;;;;;2.30;1.33;;;;;;;0.14;62.82;98302.59;4953427;28;20048;-68
2022/04/06 20:49:41;;;;;;;2.92;1.60;;;;;;;0.13;62.85;98298.25;4953629;28;20494;-60
2022/04/06 20:52:09;;;;;;;4.80;1.67;;;;;;;0.16;62.40;98300.38;4957138;28;20070;-61
2022/04/06 20:54:37;;;;;;;2.75;1.65;;;;;;;0.19;62.65;98299.81;4953903;28;20040;-65
2022/04/06 20:57:07;;;;;;;3.80;1.92;;;;;;;0.19;62.77;98294.34;4959669;28;20418;-67
2022/04/06 20:59:34;;;;;;;2.90;1.55;;;;;;;0.23;62.69;98300.81;4993028;23;20057;-64
2022/04/06 21:02:01;;;;;;;4.25;1.98;;;;;;;0.22;62.66;98293.75;5010248;28;20052;-62
2022/04/06 21:04:28;;;;;;;5.30;1.42;;;;;;;0.25;62.54;98298.63;5008769;28;20042;-67
2022/04/06 21:06:55;;;;;;;3.78;1.80;;;;;;;0.24;62.53;98302.47;5010974;28;20053;-65
2022/04/06 21:09:23;;;;;;;4.13;1.88;;;;;;;0.25;62.55;98303.25;5011382;28;20111;-62
2022/04/06 21:11:50;;;;;;;2.90;1.30;;;;;;;0.25;62.57;98304.09;5011519;28;20038;-60
2022/04/06 21:14:17;;;;;;;2.58;1.38;;;;;;;0.24;62.61;98309.84;5014563;28;20081;-61
2022/04/06 21:16:44;;;;;;;2.85;1.27;;;;;;;0.27;62.56;98312.00;5014508;28;20456;-61
2022/04/06 21:19:10;;;;;;;2.85;1.40;;;;;;;0.29;62.80;98313.31;5015267;28;20053;-61
2022/04/06 21:21:38;;;;;;;7.50;2.55;;;;;;;0.30;62.95;98309.50;5015789;28;20057;-60
2022/04/06 21:24:07;;;;;;;5.72;1.55;;;;;;;0.32;62.81;98320.13;5014977;28;20046;-61
2022/04/06 21:26:34;;;;;;;2.92;1.25;;;;;;;0.31;63.05;98322.03;5015194;28;20115;-61
2022/04/06 21:29:02;;;;;;;2.47;1.38;;;;;;;0.31;63.38;98324.78;5015010;28;20052;-63
2022/04/06 21:31:29;;;;;;;2.72;1.40;;;;;;;0.29;63.33;98318.78;5014737;28;20065;-61
2022/04/06 21:33:56;;;;;;;3.40;1.38;;;;;;;0.29;63.61;98326.97;5015381;28;20049;-61
2022/04/06 21:36:23;;;;;;;3.00;1.60;;;;;;;0.27;63.36;98331.97;5014729;28;20385;-64
2022/04/06 21:38:50;;;;;;;4.18;1.40;;;;;;;0.26;63.85;98337.72;5014970;28;20053;-64
2022/04/06 21:41:18;;;;;;;3.10;1.40;;;;;;;0.26;64.16;98337.72;5014551;28;20505;-65
2022/04/06 21:43:46;;;;;;;2.38;1.30;;;;;;;0.23;64.49;98341.03;5015111;28;20041;-63
2022/04/06 21:46:13;;;;;;;3.15;1.67;;;;;;;0.20;64.98;98339.69;5013235;28;20061;-62
2022/04/06 21:48:42;;;;;;;4.10;1.40;;;;;;;0.17;64.97;98337.56;5014735;28;20052;-63
2022/04/06 21:51:09;;;;;;;3.92;1.30;;;;;;;0.16;65.33;98340.59;5014372;28;20061;-62
2022/04/06 21:53:36;;;;;;;2.72;1.30;;;;;;;0.09;65.49;98338.22;5014584;28;20057;-63
2022/04/06 21:56:03;;;;;;;2.67;1.60;;;;;;;0.00;65.69;98346.25;5014377;28;20073;-64
2022/04/06 21:58:30;;;;;;;4.55;1.80;;;;;;;0.01;65.35;98344.34;5009519;28;20057;-63
2022/04/06 22:00:57;;;;;;;2.60;1.58;;;;;;;-0.02;65.62;98342.19;5014398;28;20448;-64
2022/04/06 22:03:26;;;;;;;2.92;1.50;;;;;;;0.00;66.50;98345.47;5014483;28;20052;-63
2022/04/06 22:05:58;;;;;;;3.70;1.90;;;;;;;0.01;66.09;98338.88;5014290;28;20050;-62
2022/04/06 22:08:25;;;;;;;3.30;1.92;;;;;;;-0.01;66.36;98344.63;5014331;28;20042;-66
2022/04/06 22:10:52;;;;;;;2.70;1.58;;;;;;;-0.01;66.45;98336.44;5014817;28;20046;-63
2022/04/06 22:13:20;;;;;;;3.33;1.75;;;;;;;-0.01;66.90;98343.81;5013735;28;20052;-63
2022/04/06 22:15:48;;;;;;;4.03;1.80;;;;;;;-0.10;66.94;98342.84;5014266;28;20054;-63
2022/04/06 22:18:18;;;;;;;4.82;1.58;;;;;;;-0.12;66.72;98340.41;5014659;28;20419;-64
2022/04/06 22:20:48;;;;;;;3.95;1.70;;;;;;;-0.10;66.88;98348.31;5014301;28;20057;-64
2022/04/06 22:23:15;;;;;;;4.93;1.90;;;;;;;-0.07;66.95;98350.44;5012238;28;20421;-63
2022/04/06 22:25:43;;;;;;;4.25;2.20;;;;;;;-0.07;66.98;98339.53;5014134;28;20042;-63
2022/04/06 22:28:11;;;;;;;16.05;6.22;;;;;;;-0.03;67.32;98348.75;5013409;28;20061;-63
2022/04/06 22:30:40;;;;;;;18.52;5.03;;;;;;;-0.03;67.06;98340.56;5013021;28;20389;-63
2022/04/06 22:33:07;;;;;;;3.60;1.88;;;;;;;-0.03;67.40;98352.31;5013374;28;20077;-68
2022/04/06 22:35:34;;;;;;;4.80;2.33;;;;;;;-0.01;67.26;98338.34;5013433;28;20042;-68
2022/04/06 22:38:01;;;;;;;3.88;2.30;;;;;;;-0.01;67.10;98339.16;5013234;28;21369;-68
2022/04/06 22:40:29;;;;;;;5.18;2.03;;;;;;;0.02;67.12;98351.44;5013782;28;20516;-67
2022/04/06 22:42:56;;;;;;;4.78;2.42;;;;;;;0.03;67.37;98349.53;5013319;28;20412;-67
2022/04/06 22:45:22;;;;;;;5.53;2.65;;;;;;;0.03;67.28;98361.28;5013741;28;20443;-69
2022/04/06 22:47:50;;;;;;;4.55;2.20;;;;;;;0.05;66.93;98350.84;5013182;28;20119;-68
2022/04/06 22:50:17;;;;;;;5.28;2.25;;;;;;;0.13;67.20;98358.41;5013642;28;20046;-67
2022/04/06 22:52:44;;;;;;;4.95;2.38;;;;;;;0.11;67.54;98352.41;5012765;28;20501;-63
2022/04/06 22:55:11;;;;;;;5.03;2.30;;;;;;;0.12;67.32;98358.69;5013142;28;20489;-62
2022/04/06 22:57:38;;;;;;;5.43;2.33;;;;;;;0.14;67.73;98357.28;5013600;28;20054;-63
2022/04/06 23:00:11;;;;;;;4.20;2.22;;;;;;;0.20;67.21;98364.31;5012778;28;20054;-63
2022/04/06 23:02:39;;;;;;;4.88;2.00;;;;;;;0.25;67.36;98366.97;4996058;28;20160;-60
2022/04/06 23:05:07;;;;;;;3.10;1.88;;;;;;;0.27;67.60;98369.41;5011788;28;20622;-60
2022/04/06 23:07:34;;;;;;;4.47;2.22;;;;;;;0.29;67.67;98365.28;5013971;28;20512;-61
2022/04/06 23:10:01;;;;;;;6.63;2.60;;;;;;;0.34;67.43;98356.19;5012886;28;20049;-62
2022/04/06 23:12:28;;;;;;;3.80;2.33;;;;;;;0.30;67.47;98366.09;5013341;28;20128;-67
2022/04/06 23:14:55;;;;;;;5.63;2.25;;;;;;;0.27;67.79;98359.31;5011795;28;20041;-67
2022/04/06 23:17:26;;;;;;;4.95;2.35;;;;;;;0.29;67.88;98354.31;5013202;28;20072;-66
2022/04/06 23:19:54;;;;;;;4.72;2.08;;;;;;;0.32;67.85;98359.22;5011435;28;20045;-67
2022/04/06 23:22:21;;;;;;;3.95;2.20;;;;;;;0.36;67.69;98354.78;5011972;28;20057;-68
2022/04/06 23:24:48;;;;;;;5.10;2.22;;;;;;;0.40;67.43;98353.09;5010990;28;20045;-69
2022/04/06 23:27:15;;;;;;;3.72;2.10;;;;;;;0.44;67.50;98354.09;5012910;28;20049;-67
2022/04/06 23:29:42;;;;;;;4.93;2.65;;;;;;;0.45;67.72;98352.19;5012159;28;20050;-68
2022/04/06 23:32:09;;;;;;;5.40;2.42;;;;;;;0.44;67.71;98359.56;5012449;28;20054;-66
2022/04/06 23:34:36;;;;;;;4.55;2.60;;;;;;;0.43;67.63;98360.69;5012119;28;20048;-68
2022/04/06 23:37:04;;;;;;;5.85;2.38;;;;;;;0.43;67.97;98349.75;5013060;28;20501;-67
2022/04/06 23:39:31;;;;;;;5.90;2.50;;;;;;;0.48;67.56;98362.53;5013107;28;20144;-68
2022/04/06 23:41:59;;;;;;;4.25;2.50;;;;;;;0.49;67.85;98364.16;5012481;28;20428;-67
2022/04/06 23:44:27;;;;;;;4.68;2.47;;;;;;;0.50;67.76;98365.81;5011866;28;20068;-67
2022/04/06 23:46:54;;;;;;;5.22;2.45;;;;;;;0.47;67.69;98369.94;5012362;28;20538;-64
2022/04/06 23:49:21;;;;;;;5.30;2.33;;;;;;;0.43;68.02;98363.44;5012625;28;20092;-67
2022/04/06 23:51:48;;;;;;;5.40;2.72;;;;;;;0.45;67.89;98363.97;5012300;28;20058;-67
2022/04/06 23:54:15;;;;;;;7.82;2.75;;;;;;;0.44;67.88;98362.31;5012508;28;20104;-68
2022/04/06 23:56:42;;;;;;;4.65;2.25;;;;;;;0.41;67.92;98368.38;5012759;28;20056;-68
2022/04/06 23:59:09;;;;;;;27.15;10.73;;;;;;;0.26;68.64;98365.84;5012691;28;20058;-67
